createdAt,value
2023-05-08T00:00:59.778Z,99.99
2023-05-08T00:01:59.754Z,99.99
2023-05-08T00:02:59.781Z,99.99
2023-05-08T00:03:59.930Z,99.99
2023-05-08T00:04:59.759Z,99.99
2023-05-08T00:05:59.725Z,99.99
2023-05-08T00:06:59.704Z,99.99
2023-05-08T00:07:59.691Z,99.99
2023-05-08T00:08:59.695Z,99.99
2023-05-08T00:09:59.669Z,99.99
2023-05-08T00:10:59.678Z,99.99
2023-05-08T00:11:59.660Z,99.99
2023-05-08T00:12:59.665Z,99.99
2023-05-08T00:13:59.640Z,99.99
2023-05-08T00:14:59.611Z,99.98
2023-05-08T00:15:59.600Z,99.98
2023-05-08T00:16:59.668Z,99.87
2023-05-08T00:17:59.634Z,99.87
2023-05-08T00:18:59.578Z,99.87
2023-05-08T00:19:59.554Z,99.77
2023-05-08T00:20:59.555Z,99.77
2023-05-08T00:21:59.535Z,99.77
2023-05-08T00:22:59.514Z,99.77
2023-05-08T00:23:59.557Z,99.77
2023-05-08T00:24:59.505Z,99.77
2023-05-08T00:25:59.510Z,99.77
2023-05-08T00:26:59.505Z,99.67
2023-05-08T00:27:59.483Z,99.67
2023-05-08T00:28:59.453Z,99.77
2023-05-08T00:29:59.449Z,99.87
2023-05-08T00:30:59.457Z,99.77
2023-05-08T00:31:59.468Z,99.87
2023-05-08T00:32:59.513Z,99.77
2023-05-08T00:33:59.445Z,99.77
2023-05-08T00:34:59.393Z,99.67
2023-05-08T00:35:59.382Z,99.67
2023-05-08T00:36:59.393Z,99.57
2023-05-08T00:37:59.357Z,99.57
2023-05-08T00:38:59.345Z,99.57
2023-05-08T00:39:59.362Z,99.47
2023-05-08T00:40:59.324Z,99.47
2023-05-08T00:41:59.315Z,99.47
2023-05-08T00:42:59.294Z,99.47
2023-05-08T00:43:59.324Z,99.37
2023-05-08T00:44:59.299Z,99.27
2023-05-08T00:45:59.323Z,99.37
2023-05-08T00:46:59.272Z,99.37
2023-05-08T00:47:59.257Z,99.47
2023-05-08T00:48:59.246Z,99.37
2023-05-08T00:49:59.245Z,99.37
2023-05-08T00:50:59.213Z,99.37
2023-05-08T00:51:59.235Z,99.41
2023-05-08T00:52:59.264Z,99.41
2023-05-08T00:53:59.198Z,99.52
2023-05-08T00:54:59.183Z,99.52
2023-05-08T00:55:59.154Z,99.62
2023-05-08T00:56:59.168Z,99.72
2023-05-08T00:57:59.141Z,99.92
2023-05-08T00:58:59.129Z,99.99
2023-05-08T00:59:59.118Z,99.99
2023-05-08T01:00:59.101Z,99.99
2023-05-08T01:01:59.168Z,99.99
2023-05-08T01:02:59.163Z,99.99
2023-05-08T01:03:59.109Z,99.99
2023-05-08T01:04:59.085Z,99.99
2023-05-08T01:05:59.073Z,99.99
2023-05-08T01:06:59.053Z,99.99
2023-05-08T01:07:59.050Z,99.99
2023-05-08T01:08:59.025Z,99.99
2023-05-08T01:09:59.019Z,99.99
2023-05-08T01:10:58.995Z,99.99
2023-05-08T01:11:58.989Z,99.99
2023-05-08T01:12:59.051Z,99.99
2023-05-08T01:13:58.969Z,99.99
2023-05-08T01:14:58.974Z,99.99
2023-05-08T01:15:59.083Z,99.99
2023-05-08T01:16:58.934Z,99.99
2023-05-08T01:17:58.978Z,99.99
2023-05-08T01:18:58.908Z,99.99
2023-05-08T01:19:58.933Z,99.99
2023-05-08T01:20:58.927Z,99.99
2023-05-08T01:21:58.891Z,99.99
2023-05-08T01:22:58.912Z,99.99
2023-05-08T01:23:58.862Z,99.99
2023-05-08T01:24:58.852Z,99.99
2023-05-08T01:25:58.894Z,99.99
2023-05-08T01:26:58.828Z,99.99
2023-05-08T01:27:58.821Z,99.99
2023-05-08T01:28:58.806Z,99.99
2023-05-08T01:29:58.833Z,99.99
2023-05-08T01:30:58.784Z,99.99
2023-05-08T01:31:58.780Z,99.99
2023-05-08T01:32:58.868Z,99.99
2023-05-08T01:33:58.961Z,99.99
2023-05-08T01:34:58.758Z,99.99
2023-05-08T01:35:58.737Z,99.99
2023-05-08T01:36:58.721Z,99.99
2023-05-08T01:37:58.732Z,99.99
2023-05-08T01:38:58.733Z,99.99
2023-05-08T01:39:58.687Z,99.99
2023-05-08T01:40:58.673Z,99.99
2023-05-08T01:41:58.666Z,99.99
2023-05-08T01:42:58.669Z,99.99
2023-05-08T01:43:58.661Z,99.99
2023-05-08T01:44:58.633Z,99.92
2023-05-08T01:45:58.648Z,99.92
2023-05-08T01:46:58.736Z,99.99
2023-05-08T01:47:58.637Z,99.99
2023-05-08T01:48:58.613Z,99.99
2023-05-08T01:49:58.579Z,99.99
2023-05-08T01:50:58.571Z,99.99
2023-05-08T01:51:58.560Z,99.99
2023-05-08T01:52:58.551Z,99.99
2023-05-08T01:53:58.547Z,99.99
2023-05-08T01:54:58.510Z,99.99
2023-05-08T01:55:58.530Z,99.99
2023-05-08T01:56:58.506Z,99.99
2023-05-08T01:57:58.480Z,99.99
2023-05-08T01:58:58.537Z,99.99
2023-05-08T01:59:58.471Z,99.99
2023-05-08T02:00:58.508Z,99.99
2023-05-08T02:01:58.454Z,99.99
2023-05-08T02:02:58.586Z,99.99
2023-05-08T02:03:58.427Z,99.99
2023-05-08T02:04:58.424Z,99.99
2023-05-08T02:05:58.397Z,99.99
2023-05-08T02:06:58.390Z,99.99
2023-05-08T02:07:58.379Z,99.99
2023-05-08T02:08:58.380Z,99.99
2023-05-08T02:09:58.354Z,99.99
2023-05-08T02:10:58.340Z,99.99
2023-05-08T02:11:58.370Z,99.99
2023-05-08T02:12:58.341Z,99.99
2023-05-08T02:13:58.340Z,99.99
2023-05-08T02:14:58.315Z,99.99
2023-05-08T02:15:58.296Z,99.99
2023-05-08T02:16:58.400Z,99.99
2023-05-08T02:17:58.332Z,99.99
2023-05-08T02:18:58.274Z,99.99
2023-05-08T02:19:58.252Z,99.99
2023-05-08T02:20:58.240Z,99.99
2023-05-08T02:21:58.261Z,99.99
2023-05-08T02:22:58.223Z,99.99
2023-05-08T02:23:58.209Z,99.99
2023-05-08T02:24:58.212Z,99.99
2023-05-08T02:25:58.185Z,99.99
2023-05-08T02:26:58.175Z,99.99
2023-05-08T02:27:58.161Z,99.99
2023-05-08T02:28:58.178Z,99.99
2023-05-08T02:29:58.151Z,99.99
2023-05-08T02:30:58.138Z,99.99
2023-05-08T02:31:58.259Z,99.99
2023-05-08T02:33:00.444Z,99.99
2023-05-08T02:33:58.094Z,99.99
2023-05-08T02:35:03.148Z,99.99
2023-05-08T02:35:59.061Z,99.99
2023-05-08T02:36:58.075Z,99.99
2023-05-08T02:37:58.077Z,99.99
2023-05-08T02:38:58.044Z,99.99
2023-05-08T02:39:58.035Z,99.99
2023-05-08T02:40:58.026Z,99.99
2023-05-08T02:41:58.011Z,99.99
2023-05-08T02:42:58.016Z,99.99
2023-05-08T02:43:57.994Z,99.99
2023-05-08T02:44:57.999Z,99.99
2023-05-08T02:45:58.021Z,99.99
2023-05-08T02:46:57.989Z,99.99
2023-05-08T02:47:57.958Z,99.99
2023-05-08T02:48:57.936Z,99.99
2023-05-08T02:49:57.923Z,99.99
2023-05-08T02:50:57.901Z,99.99
2023-05-08T02:51:57.921Z,99.99
2023-05-08T02:52:57.895Z,99.99
2023-05-08T02:53:57.863Z,99.99
2023-05-08T02:54:57.873Z,99.99
2023-05-08T02:55:57.869Z,99.99
2023-05-08T02:56:57.854Z,99.99
2023-05-08T02:57:57.836Z,99.99
2023-05-08T02:58:57.835Z,99.99
2023-05-08T02:59:57.805Z,99.99
2023-05-08T03:00:57.808Z,99.99
2023-05-08T03:01:57.820Z,99.99
2023-05-08T03:02:57.870Z,99.99
2023-05-08T03:03:57.874Z,99.99
2023-05-08T03:04:57.764Z,99.99
2023-05-08T03:05:57.738Z,99.99
2023-05-08T03:06:57.752Z,99.99
2023-05-08T03:07:57.741Z,99.99
2023-05-08T03:08:57.727Z,99.99
2023-05-08T03:09:57.691Z,99.99
2023-05-08T03:10:57.706Z,99.99
2023-05-08T03:11:57.667Z,99.99
2023-05-08T03:12:57.719Z,99.99
2023-05-08T03:13:57.653Z,99.99
2023-05-08T03:14:57.646Z,99.99
2023-05-08T03:15:57.675Z,99.99
2023-05-08T03:16:57.619Z,99.99
2023-05-08T03:17:57.677Z,99.99
2023-05-08T03:18:57.787Z,99.99
2023-05-08T03:19:57.678Z,99.99
2023-05-08T03:20:57.620Z,99.99
2023-05-08T03:21:57.583Z,99.99
2023-05-08T03:22:57.556Z,99.99
2023-05-08T03:23:57.567Z,99.99
2023-05-08T03:24:57.543Z,99.99
2023-05-08T03:25:57.530Z,99.99
2023-05-08T03:26:57.548Z,99.99
2023-05-08T03:27:57.563Z,99.99
2023-05-08T03:28:57.514Z,99.99
2023-05-08T03:29:57.501Z,99.99
2023-05-08T03:30:57.502Z,99.99
2023-05-08T03:31:57.553Z,99.99
2023-05-08T03:32:57.481Z,99.99
2023-05-08T03:33:57.446Z,99.99
2023-05-08T03:34:57.429Z,99.99
2023-05-08T03:35:57.436Z,99.99
2023-05-08T03:36:57.404Z,99.99
2023-05-08T03:37:57.375Z,99.99
2023-05-08T03:38:57.382Z,99.99
2023-05-08T03:39:57.374Z,99.99
2023-05-08T03:40:57.355Z,99.99
2023-05-08T03:41:57.353Z,99.99
2023-05-08T03:42:57.357Z,99.99
2023-05-08T03:43:57.365Z,99.99
2023-05-08T03:44:58.215Z,99.99
2023-05-08T03:45:57.467Z,99.99
2023-05-08T03:46:57.391Z,99.99
2023-05-08T03:47:57.288Z,99.99
2023-05-08T03:48:57.280Z,99.99
2023-05-08T03:49:57.283Z,99.99
2023-05-08T03:50:57.586Z,99.99
2023-05-08T03:51:58.776Z,99.99
2023-05-08T03:52:57.356Z,99.99
2023-05-08T03:53:57.497Z,99.99
2023-05-08T03:54:57.227Z,99.99
2023-05-08T03:55:57.254Z,99.99
2023-05-08T03:56:57.497Z,99.99
2023-05-08T03:57:57.248Z,99.99
2023-05-08T03:58:57.339Z,99.99
2023-05-08T03:59:57.198Z,99.99
2023-05-08T04:00:57.192Z,99.99
2023-05-08T04:01:57.255Z,99.99
2023-05-08T04:02:57.349Z,99.99
2023-05-08T04:03:57.222Z,99.99
2023-05-08T04:04:57.137Z,99.99
2023-05-08T04:05:57.299Z,99.99
2023-05-08T04:06:57.255Z,99.99
2023-05-08T04:07:57.066Z,99.99
2023-05-08T04:08:57.068Z,99.99
2023-05-08T04:09:57.074Z,99.99
2023-05-08T04:10:57.099Z,99.99
2023-05-08T04:11:57.035Z,99.99
2023-05-08T04:12:57.102Z,99.99
2023-05-08T04:13:57.028Z,99.99
2023-05-08T04:14:57.168Z,99.99
2023-05-08T04:15:56.982Z,99.99
2023-05-08T04:16:57.005Z,99.99
2023-05-08T04:17:57.087Z,99.99
2023-05-08T04:18:56.977Z,99.99
2023-05-08T04:19:56.948Z,99.99
2023-05-08T04:20:57.185Z,99.99
2023-05-08T04:21:57.068Z,99.99
2023-05-08T04:22:56.941Z,99.99
2023-05-08T04:23:56.960Z,99.99
2023-05-08T04:24:56.944Z,99.99
2023-05-08T04:25:57.065Z,99.99
2023-05-08T04:26:56.957Z,99.99
2023-05-08T04:27:56.914Z,99.99
2023-05-08T04:28:56.886Z,99.99
2023-05-08T04:29:56.913Z,99.99
2023-05-08T04:30:56.890Z,99.99
2023-05-08T04:31:57.021Z,99.99
2023-05-08T04:32:57.120Z,99.99
2023-05-08T04:33:56.978Z,99.99
2023-05-08T04:34:56.787Z,99.99
2023-05-08T04:35:56.817Z,99.99
2023-05-08T04:36:56.756Z,99.99
2023-05-08T04:37:56.756Z,99.99
2023-05-08T04:38:57.741Z,99.99
2023-05-08T04:39:56.737Z,99.99
2023-05-08T04:40:56.750Z,99.99
2023-05-08T04:41:56.702Z,99.99
2023-05-08T04:42:56.703Z,99.99
2023-05-08T04:43:56.692Z,99.99
2023-05-08T04:44:56.685Z,99.99
2023-05-08T04:45:56.703Z,99.99
2023-05-08T04:46:56.686Z,99.99
2023-05-08T04:47:56.661Z,99.99
2023-05-08T04:48:56.651Z,99.99
2023-05-08T04:49:56.634Z,99.99
2023-05-08T04:50:56.653Z,99.99
2023-05-08T04:51:56.593Z,99.99
2023-05-08T04:52:56.583Z,99.99
2023-05-08T04:53:56.573Z,99.99
2023-05-08T04:54:56.566Z,99.99
2023-05-08T04:55:56.628Z,99.99
2023-05-08T04:56:56.542Z,99.99
2023-05-08T04:57:56.558Z,99.99
2023-05-08T04:58:56.514Z,99.99
2023-05-08T04:59:56.531Z,99.99
2023-05-08T05:00:56.517Z,99.99
2023-05-08T05:01:56.646Z,99.99
2023-05-08T05:02:56.627Z,99.99
2023-05-08T05:03:56.493Z,99.99
2023-05-08T05:04:56.568Z,99.99
2023-05-08T05:05:56.460Z,99.99
2023-05-08T05:06:56.441Z,99.99
2023-05-08T05:07:56.436Z,99.99
2023-05-08T05:08:56.416Z,99.99
2023-05-08T05:09:56.405Z,99.99
2023-05-08T05:10:56.393Z,99.99
2023-05-08T05:11:58.076Z,99.99
2023-05-08T05:12:56.402Z,99.99
2023-05-08T05:13:56.366Z,99.99
2023-05-08T05:14:56.339Z,99.99
2023-05-08T05:15:56.353Z,99.99
2023-05-08T05:16:56.321Z,99.99
2023-05-08T05:17:56.432Z,99.99
2023-05-08T05:18:56.305Z,99.99
2023-05-08T05:19:56.300Z,99.99
2023-05-08T05:20:56.283Z,99.99
2023-05-08T05:21:56.417Z,99.99
2023-05-08T05:22:56.281Z,99.99
2023-05-08T05:23:56.255Z,99.99
2023-05-08T05:24:56.242Z,99.99
2023-05-08T05:25:56.222Z,99.99
2023-05-08T05:26:56.204Z,99.99
2023-05-08T05:27:56.191Z,99.99
2023-05-08T05:28:56.214Z,99.99
2023-05-08T05:29:56.161Z,99.99
2023-05-08T05:30:56.161Z,99.99
2023-05-08T05:31:56.257Z,99.99
2023-05-08T05:32:56.220Z,99.99
2023-05-08T05:33:56.135Z,99.99
2023-05-08T05:34:56.119Z,99.99
2023-05-08T05:35:56.097Z,99.99
2023-05-08T05:36:56.116Z,99.99
2023-05-08T05:37:56.096Z,99.99
2023-05-08T05:38:56.086Z,99.99
2023-05-08T05:39:56.057Z,99.99
2023-05-08T05:40:56.065Z,99.99
2023-05-08T05:41:56.049Z,99.99
2023-05-08T05:42:56.056Z,99.99
2023-05-08T05:43:56.033Z,99.99
2023-05-08T05:44:56.026Z,99.99
2023-05-08T05:45:56.043Z,99.99
2023-05-08T05:46:56.033Z,99.99
2023-05-08T05:47:56.064Z,99.99
2023-05-08T05:48:56.000Z,99.99
2023-05-08T05:49:55.957Z,99.99
2023-05-08T05:50:55.951Z,99.99
2023-05-08T05:51:55.941Z,99.99
2023-05-08T05:52:55.928Z,99.99
2023-05-08T05:53:55.900Z,99.99
2023-05-08T05:54:56.041Z,99.99
2023-05-08T05:55:55.875Z,99.99
2023-05-08T05:56:55.894Z,99.99
2023-05-08T05:57:55.883Z,99.99
2023-05-08T05:58:55.901Z,99.99
2023-05-08T05:59:55.877Z,99.99
2023-05-08T06:00:55.865Z,99.99
2023-05-08T06:01:55.845Z,99.99
2023-05-08T06:02:56.006Z,99.99
2023-05-08T06:03:56.006Z,99.99
2023-05-08T06:04:55.810Z,99.99
2023-05-08T06:05:56.543Z,99.99
2023-05-08T06:06:55.789Z,99.99
2023-05-08T06:07:55.772Z,99.99
2023-05-08T06:08:55.756Z,99.99
2023-05-08T06:09:55.765Z,99.99
2023-05-08T06:10:55.742Z,99.99
2023-05-08T06:11:55.722Z,99.99
2023-05-08T06:12:55.776Z,99.99
2023-05-08T06:13:55.710Z,99.98
2023-05-08T06:14:55.689Z,99.77
2023-05-08T06:15:55.667Z,99.67
2023-05-08T06:16:55.698Z,99.67
2023-05-08T06:17:55.684Z,99.57
2023-05-08T06:18:55.645Z,99.47
2023-05-08T06:19:55.625Z,99.57
2023-05-08T06:20:55.608Z,99.67
2023-05-08T06:21:55.613Z,99.67
2023-05-08T06:22:55.630Z,99.77
2023-05-08T06:23:55.599Z,99.67
2023-05-08T06:24:55.600Z,99.67
2023-05-08T06:25:55.562Z,99.77
2023-05-08T06:26:55.560Z,99.77
2023-05-08T06:27:55.571Z,99.67
2023-05-08T06:28:55.534Z,99.67
2023-05-08T06:29:55.533Z,99.67
2023-05-08T06:30:55.539Z,99.67
2023-05-08T06:31:55.498Z,99.67
2023-05-08T06:32:55.540Z,99.57
2023-05-08T06:33:55.490Z,99.47
2023-05-08T06:34:55.464Z,99.37
2023-05-08T06:35:55.456Z,99.37
2023-05-08T06:36:55.444Z,99.37
2023-05-08T06:37:55.463Z,99.47
2023-05-08T06:38:55.419Z,99.47
2023-05-08T06:40:10.310Z,99.57
2023-05-08T06:40:56.406Z,99.57
2023-05-08T06:41:55.414Z,99.57
2023-05-08T06:42:55.383Z,99.67
2023-05-08T06:43:55.387Z,99.67
2023-05-08T06:44:55.376Z,99.62
2023-05-08T06:45:55.382Z,99.62
2023-05-08T06:46:55.533Z,99.52
2023-05-08T06:47:55.380Z,99.52
2023-05-08T06:48:55.339Z,99.52
2023-05-08T06:49:55.325Z,99.42
2023-05-08T06:50:55.301Z,99.32
2023-05-08T06:51:57.656Z,99.22
2023-05-08T06:52:55.273Z,99.22
2023-05-08T06:53:55.274Z,99.22
2023-05-08T06:54:55.252Z,99.02
2023-05-08T06:55:55.236Z,98.92
2023-05-08T06:56:55.240Z,98.92
2023-05-08T06:57:55.219Z,98.92
2023-05-08T06:59:05.031Z,99.02
2023-05-08T06:59:56.196Z,99.02
2023-05-08T07:00:55.190Z,99.12
2023-05-08T07:01:55.269Z,98.92
2023-05-08T07:02:55.208Z,98.92
2023-05-08T07:03:55.210Z,98.82
2023-05-08T07:04:55.175Z,98.82
2023-05-08T07:05:55.149Z,98.82
2023-05-08T07:06:55.128Z,98.92
2023-05-08T07:07:55.121Z,98.92
2023-05-08T07:08:55.116Z,98.61
2023-05-08T07:09:55.099Z,98.61
2023-05-08T07:10:55.080Z,98.71
2023-05-08T07:11:55.093Z,98.77
2023-05-08T07:12:55.157Z,98.77
2023-05-08T07:13:55.054Z,98.67
2023-05-08T07:14:55.906Z,98.67
2023-05-08T07:15:55.094Z,98.67
2023-05-08T07:16:55.037Z,98.47
2023-05-08T07:17:55.035Z,98.47
2023-05-08T07:18:54.994Z,98.47
2023-05-08T07:19:54.998Z,98.36
2023-05-08T07:20:54.956Z,98.36
2023-05-08T07:21:55.032Z,98.36
2023-05-08T07:22:54.966Z,98.16
2023-05-08T07:23:54.944Z,97.76
2023-05-08T07:24:54.925Z,97.56
2023-05-08T07:25:54.930Z,97.66
2023-05-08T07:26:54.911Z,97.91
2023-05-08T07:27:54.912Z,98.11
2023-05-08T07:28:54.905Z,98.22
2023-05-08T07:29:54.881Z,97.81
2023-05-08T07:30:54.870Z,97.81
2023-05-08T07:31:54.948Z,97.91
2023-05-08T07:32:54.923Z,98.02
2023-05-08T07:33:54.822Z,98.02
2023-05-08T07:34:54.830Z,98.02
2023-05-08T07:35:54.816Z,98.02
2023-05-08T07:36:54.811Z,97.91
2023-05-08T07:37:54.815Z,97.61
2023-05-08T07:38:54.770Z,97.51
2023-05-08T07:39:54.768Z,97.31
2023-05-08T07:40:54.754Z,97.31
2023-05-08T07:41:54.756Z,97.56
2023-05-08T07:42:54.762Z,97.77
2023-05-08T07:43:54.724Z,97.77
2023-05-08T07:44:55.424Z,97.87
2023-05-08T07:45:54.692Z,97.87
2023-05-08T07:46:54.823Z,97.97
2023-05-08T07:47:54.801Z,97.77
2023-05-08T07:48:54.668Z,97.42
2023-05-08T07:49:54.670Z,97.02
2023-05-08T07:50:54.650Z,96.92
2023-05-08T07:51:54.640Z,96.71
2023-05-08T07:52:54.624Z,96.51
2023-05-08T07:53:54.624Z,96.51
2023-05-08T07:54:54.612Z,96.51
2023-05-08T07:55:54.589Z,96.51
2023-05-08T07:56:54.583Z,96.31
2023-05-08T07:57:54.560Z,96.01
2023-05-08T07:58:54.573Z,96.31
2023-05-08T07:59:54.556Z,96.16
2023-05-08T08:00:54.531Z,96.06
2023-05-08T08:01:54.576Z,96.06
2023-05-08T08:02:54.671Z,95.76
2023-05-08T08:03:54.624Z,95.86
2023-05-08T08:04:54.508Z,95.66
2023-05-08T08:05:54.512Z,95.26
2023-05-08T08:06:54.468Z,94.85
2023-05-08T08:07:54.635Z,95.06
2023-05-08T08:08:54.459Z,95.26
2023-05-08T08:09:54.454Z,95.26
2023-05-08T08:10:54.453Z,95.26
2023-05-08T08:11:54.427Z,95.66
2023-05-08T08:12:54.480Z,95.56
2023-05-08T08:13:54.383Z,95.06
2023-05-08T08:14:54.389Z,94.55
2023-05-08T08:15:54.382Z,94.75
2023-05-08T08:16:54.383Z,95.06
2023-05-08T08:17:54.370Z,95.06
2023-05-08T08:18:54.328Z,95.15
2023-05-08T08:19:54.359Z,95.06
2023-05-08T08:20:54.308Z,95.15
2023-05-08T08:21:54.333Z,94.95
2023-05-08T08:22:54.294Z,94.35
2023-05-08T08:23:54.304Z,93.44
2023-05-08T08:24:55.307Z,93.24
2023-05-08T08:25:54.273Z,93.34
2023-05-08T08:26:54.255Z,93.65
2023-05-08T08:27:54.281Z,93.54
2023-05-08T08:28:54.249Z,93.65
2023-05-08T08:30:04.476Z,93.65
2023-05-08T08:30:55.304Z,93.74
2023-05-08T08:31:54.223Z,93.85
2023-05-08T08:32:54.230Z,93.74
2023-05-08T08:33:54.168Z,93.65
2023-05-08T08:34:54.169Z,93.24
2023-05-08T08:35:54.172Z,93.14
2023-05-08T08:36:54.146Z,92.94
2023-05-08T08:37:54.155Z,92.99
2023-05-08T08:38:54.113Z,93.19
2023-05-08T08:39:54.113Z,93.40
2023-05-08T08:40:54.097Z,93.70
2023-05-08T08:41:54.130Z,93.90
2023-05-08T08:42:54.091Z,93.70
2023-05-08T08:43:54.058Z,93.10
2023-05-08T08:44:54.051Z,92.09
2023-05-08T08:45:54.141Z,91.78
2023-05-08T08:46:54.107Z,91.78
2023-05-08T08:47:54.069Z,91.99
2023-05-08T08:48:54.029Z,92.09
2023-05-08T08:49:53.989Z,91.69
2023-05-08T08:50:53.990Z,91.89
2023-05-08T08:51:54.004Z,91.69
2023-05-08T08:52:53.967Z,91.58
2023-05-08T08:53:53.969Z,91.49
2023-05-08T08:54:53.952Z,92.19
2023-05-08T08:55:53.951Z,92.09
2023-05-08T08:56:53.944Z,92.29
2023-05-08T08:57:53.940Z,92.59
2023-05-08T08:58:53.912Z,92.69
2023-05-08T08:59:54.017Z,92.79
2023-05-08T09:00:53.886Z,92.69
2023-05-08T09:01:54.133Z,91.69
2023-05-08T09:02:53.963Z,91.02
2023-05-08T09:03:53.946Z,91.73
2023-05-08T09:04:53.840Z,91.83
2023-05-08T09:05:53.845Z,91.83
2023-05-08T09:06:53.847Z,92.13
2023-05-08T09:07:53.833Z,92.43
2023-05-08T09:08:53.808Z,92.83
2023-05-08T09:09:53.776Z,92.83
2023-05-08T09:10:53.800Z,92.94
2023-05-08T09:11:53.754Z,92.90
2023-05-08T09:12:53.837Z,92.79
2023-05-08T09:13:53.733Z,92.99
2023-05-08T09:14:53.732Z,93.19
2023-05-08T09:15:53.760Z,93.19
2023-05-08T09:16:53.742Z,93.30
2023-05-08T09:17:53.691Z,93.30
2023-05-08T09:18:53.690Z,93.10
2023-05-08T09:19:53.678Z,93.10
2023-05-08T09:20:53.664Z,93.19
2023-05-08T09:21:53.658Z,93.35
2023-05-08T09:22:53.638Z,93.05
2023-05-08T09:23:53.647Z,92.85
2023-05-08T09:24:53.646Z,92.14
2023-05-08T09:25:53.618Z,92.05
2023-05-08T09:26:53.604Z,91.85
2023-05-08T09:27:53.601Z,91.70
2023-05-08T09:28:53.582Z,92.00
2023-05-08T09:29:53.569Z,92.10
2023-05-08T09:30:53.569Z,92.10
2023-05-08T09:31:53.661Z,91.90
2023-05-08T09:32:53.583Z,91.15
2023-05-08T09:33:53.533Z,89.95
2023-05-08T09:34:53.516Z,90.15
2023-05-08T09:35:53.488Z,89.84
2023-05-08T09:36:53.493Z,90.45
2023-05-08T09:37:54.589Z,90.85
2023-05-08T09:38:53.465Z,90.65
2023-05-08T09:39:53.491Z,90.15
2023-05-08T09:40:53.445Z,89.54
2023-05-08T09:41:53.443Z,89.75
2023-05-08T09:42:53.442Z,89.95
2023-05-08T09:43:53.410Z,90.15
2023-05-08T09:44:53.407Z,90.25
2023-05-08T09:45:53.450Z,89.75
2023-05-08T09:46:53.386Z,89.14
2023-05-08T09:47:53.398Z,89.34
2023-05-08T09:48:53.341Z,89.64
2023-05-08T09:49:53.344Z,89.54
2023-05-08T09:50:53.351Z,89.90
2023-05-08T09:51:53.442Z,89.70
2023-05-08T09:52:53.389Z,89.60
2023-05-08T09:53:53.317Z,88.70
2023-05-08T09:54:53.280Z,88.59
2023-05-08T09:55:53.287Z,87.99
2023-05-08T09:56:53.274Z,88.05
2023-05-08T09:57:53.281Z,88.15
2023-05-08T09:58:53.256Z,87.85
2023-05-08T09:59:53.236Z,87.55
2023-05-08T10:00:53.277Z,87.95
2023-05-08T10:01:53.219Z,86.34
2023-05-08T10:02:53.238Z,86.54
2023-05-08T10:03:53.269Z,86.74
2023-05-08T10:04:53.243Z,87.45
2023-05-08T10:05:53.183Z,88.15
2023-05-08T10:06:54.554Z,87.55
2023-05-08T10:07:53.197Z,86.54
2023-05-08T10:08:53.148Z,85.94
2023-05-08T10:09:53.139Z,86.24
2023-05-08T10:10:53.147Z,86.54
2023-05-08T10:11:53.162Z,86.80
2023-05-08T10:12:53.139Z,86.70
2023-05-08T10:13:53.096Z,86.40
2023-05-08T10:14:53.066Z,87.60
2023-05-08T10:15:53.129Z,87.01
2023-05-08T10:16:53.155Z,85.70
2023-05-08T10:17:53.191Z,85.96
2023-05-08T10:18:53.030Z,85.96
2023-05-08T10:19:53.099Z,85.05
2023-05-08T10:20:53.039Z,84.05
2023-05-08T10:21:53.021Z,84.95
2023-05-08T10:22:53.030Z,85.16
2023-05-08T10:23:53.006Z,84.85
2023-05-08T10:24:53.007Z,84.05
2023-05-08T10:25:54.884Z,84.75
2023-05-08T10:27:05.635Z,85.61
2023-05-08T10:27:53.952Z,85.31
2023-05-08T10:28:52.941Z,85.02
2023-05-08T10:29:52.918Z,85.17
2023-05-08T10:30:52.940Z,85.17
2023-05-08T10:31:52.916Z,84.93
2023-05-08T10:32:52.911Z,83.83
2023-05-08T10:33:52.867Z,83.03
2023-05-08T10:34:52.877Z,82.69
2023-05-08T10:35:52.866Z,83.29
2023-05-08T10:36:54.083Z,83.25
2023-05-08T10:37:52.848Z,83.75
2023-05-08T10:38:52.850Z,83.55
2023-05-08T10:39:52.809Z,84.05
2023-05-08T10:40:52.806Z,82.75
2023-05-08T10:41:52.813Z,83.11
2023-05-08T10:42:52.790Z,81.85
2023-05-08T10:43:52.793Z,82.41
2023-05-08T10:44:52.795Z,83.41
2023-05-08T10:45:52.764Z,81.61
2023-05-08T10:46:52.741Z,81.41
2023-05-08T10:47:52.798Z,81.81
2023-05-08T10:48:52.718Z,81.11
2023-05-08T10:49:52.701Z,81.41
2023-05-08T10:50:52.689Z,81.91
2023-05-08T10:51:52.676Z,82.31
2023-05-08T10:52:52.678Z,82.71
2023-05-08T10:53:52.656Z,81.81
2023-05-08T10:54:52.650Z,81.61
2023-05-08T10:55:52.636Z,81.71
2023-05-08T10:56:52.651Z,81.71
2023-05-08T10:57:52.614Z,81.21
2023-05-08T10:58:52.614Z,81.41
2023-05-08T10:59:52.606Z,81.41
2023-05-08T11:00:52.593Z,80.51
2023-05-08T11:01:52.629Z,79.71
2023-05-08T11:02:52.719Z,79.71
2023-05-08T11:03:52.754Z,80.30
2023-05-08T11:04:52.546Z,80.80
2023-05-08T11:05:52.533Z,80.41
2023-05-08T11:06:52.517Z,79.71
2023-05-08T11:07:52.513Z,78.54
2023-05-08T11:08:52.501Z,79.44
2023-05-08T11:09:52.473Z,80.61
2023-05-08T11:10:52.501Z,81.91
2023-05-08T11:11:52.458Z,81.21
2023-05-08T11:12:52.537Z,80.47
2023-05-08T11:13:52.430Z,81.77
2023-05-08T11:14:52.438Z,80.73
2023-05-08T11:15:52.447Z,79.53
2023-05-08T11:16:52.402Z,78.53
2023-05-08T11:17:52.449Z,78.03
2023-05-08T11:18:52.384Z,78.63
2023-05-08T11:19:52.384Z,80.03
2023-05-08T11:20:52.366Z,80.53
2023-05-08T11:21:52.364Z,80.43
2023-05-08T11:22:52.365Z,79.33
2023-05-08T11:23:52.332Z,78.99
2023-05-08T11:24:52.321Z,76.99
2023-05-08T11:25:52.367Z,77.23
2023-05-08T11:26:52.310Z,77.73
2023-05-08T11:27:52.310Z,78.29
2023-05-08T11:28:52.291Z,78.09
2023-05-08T11:29:52.270Z,78.19
2023-05-08T11:30:52.280Z,78.29
2023-05-08T11:31:52.356Z,77.59
2023-05-08T11:32:52.485Z,77.89
2023-05-08T11:33:52.270Z,77.79
2023-05-08T11:34:52.222Z,78.19
2023-05-08T11:35:52.191Z,78.29
2023-05-08T11:36:52.205Z,78.99
2023-05-08T11:37:52.188Z,78.99
2023-05-08T11:38:52.165Z,78.75
2023-05-08T11:39:52.143Z,78.05
2023-05-08T11:40:52.155Z,76.35
2023-05-08T11:41:52.153Z,76.06
2023-05-08T11:42:52.144Z,76.35
2023-05-08T11:43:52.128Z,77.56
2023-05-08T11:44:52.126Z,78.05
2023-05-08T11:45:52.087Z,78.55
2023-05-08T11:46:52.107Z,77.66
2023-05-08T11:47:52.195Z,77.72
2023-05-08T11:48:52.064Z,77.18
2023-05-08T11:49:52.063Z,75.68
2023-05-08T11:50:52.042Z,75.95
2023-05-08T11:51:52.024Z,75.01
2023-05-08T11:52:52.032Z,74.28
2023-05-08T11:53:52.007Z,74.08
2023-05-08T11:54:52.013Z,74.04
2023-05-08T11:55:51.979Z,73.71
2023-05-08T11:56:52.004Z,73.31
2023-05-08T11:57:51.963Z,73.18
2023-05-08T11:58:51.945Z,72.08
2023-05-08T11:59:51.979Z,70.65
2023-05-08T12:00:52.003Z,70.26
2023-05-08T12:02:52.072Z,70.36
2023-05-08T12:03:52.101Z,70.89
2023-05-08T12:04:51.963Z,69.59
2023-05-08T12:05:51.886Z,69.29
2023-05-08T12:06:51.908Z,70.09
2023-05-08T12:07:51.873Z,69.56
2023-05-08T12:08:51.954Z,70.56
2023-05-08T12:09:51.829Z,73.24
2023-05-08T12:10:51.845Z,71.51
2023-05-08T12:11:51.818Z,69.89
2023-05-08T12:12:51.856Z,67.70
2023-05-08T12:13:51.791Z,68.53
2023-05-08T12:14:51.788Z,68.50
2023-05-08T12:15:51.760Z,68.20
2023-05-08T12:16:51.830Z,66.48
2023-05-08T12:17:51.797Z,65.19
2023-05-08T12:18:51.730Z,67.70
2023-05-08T12:19:51.730Z,67.60
2023-05-08T12:20:51.736Z,67.90
2023-05-08T12:21:51.709Z,67.50
2023-05-08T12:22:51.714Z,67.50
2023-05-08T12:23:51.710Z,68.23
2023-05-08T12:24:51.678Z,67.18
2023-05-08T12:25:53.729Z,65.56
2023-05-08T12:26:51.679Z,64.67
2023-05-08T12:27:51.644Z,63.87
2023-05-08T12:28:51.665Z,64.17
2023-05-08T12:29:51.607Z,63.84
2023-05-08T12:30:51.632Z,62.23
2023-05-08T12:31:51.648Z,61.02
2023-05-08T12:32:51.653Z,60.85
2023-05-08T12:33:51.561Z,61.77
2023-05-08T12:34:51.573Z,62.10
2023-05-08T12:35:51.572Z,62.29
2023-05-08T12:36:51.571Z,63.05
2023-05-08T12:37:51.532Z,64.27
2023-05-08T12:38:51.557Z,64.59
2023-05-08T12:39:51.514Z,65.42
2023-05-08T12:40:51.515Z,65.35
2023-05-08T12:41:51.497Z,65.78
2023-05-08T12:42:51.485Z,65.72
2023-05-08T12:43:51.483Z,66.71
2023-05-08T12:44:51.468Z,67.11
2023-05-08T12:45:51.468Z,64.86
2023-05-08T12:46:51.609Z,63.90
2023-05-08T12:47:51.515Z,64.13
2023-05-08T12:48:51.456Z,63.27
2023-05-08T12:49:51.436Z,63.27
2023-05-08T12:50:51.403Z,63.79
2023-05-08T12:51:51.425Z,65.22
2023-05-08T12:52:52.128Z,65.64
2023-05-08T12:53:51.356Z,66.57